sensor_id;sensor_type;location;lat;lon;timestamp;temperature;humidity
62424;DHT22;48463;43.604;3.872;2023-05-13T00:00:47;12.80;99.90
62424;DHT22;48463;43.604;3.872;2023-05-13T00:03:12;12.80;99.90
62424;DHT22;48463;43.604;3.872;2023-05-13T00:05:38;12.70;99.90
62424;DHT22;48463;43.604;3.872;2023-05-13T00:08:04;12.80;99.90
62424;DHT22;48463;43.604;3.872;2023-05-13T00:10:32;12.80;99.90
62424;DHT22;48463;43.604;3.872;2023-05-13T00:12:59;12.80;99.90
62424;DHT22;48463;43.604;3.872;2023-05-13T00:15:24;12.80;99.90
62424;DHT22;48463;43.604;3.872;2023-05-13T00:17:50;12.80;99.90
62424;DHT22;48463;43.604;3.872;2023-05-13T00:20:16;12.70;99.90
62424;DHT22;48463;43.604;3.872;2023-05-13T00:22:41;12.70;99.90
62424;DHT22;48463;43.604;3.872;2023-05-13T00:25:07;12.70;99.90
62424;DHT22;48463;43.604;3.872;2023-05-13T00:27:33;12.80;99.90
62424;DHT22;48463;43.604;3.872;2023-05-13T00:29:59;12.80;99.90
62424;DHT22;48463;43.604;3.872;2023-05-13T00:32:25;12.70;99.90
62424;DHT22;48463;43.604;3.872;2023-05-13T00:34:51;12.70;99.90
62424;DHT22;48463;43.604;3.872;2023-05-13T00:37:17;12.70;99.90
62424;DHT22;48463;43.604;3.872;2023-05-13T00:39:42;12.70;99.90
62424;DHT22;48463;43.604;3.872;2023-05-13T00:42:08;12.80;99.90
62424;DHT22;48463;43.604;3.872;2023-05-13T00:44:36;12.70;99.90
62424;DHT22;48463;43.604;3.872;2023-05-13T00:47:06;12.70;99.90
62424;DHT22;48463;43.604;3.872;2023-05-13T00:49:32;12.70;99.90
62424;DHT22;48463;43.604;3.872;2023-05-13T00:51:58;12.80;99.90
62424;DHT22;48463;43.604;3.872;2023-05-13T00:54:24;12.80;99.90
62424;DHT22;48463;43.604;3.872;2023-05-13T00:56:50;12.80;99.90
62424;DHT22;48463;43.604;3.872;2023-05-13T00:59:23;12.70;99.90
62424;DHT22;48463;43.604;3.872;2023-05-13T01:04:49;12.90;99.90
62424;DHT22;48463;43.604;3.872;2023-05-13T01:12:42;12.80;99.90
62424;DHT22;48463;43.604;3.872;2023-05-13T01:15:11;12.80;99.90
62424;DHT22;48463;43.604;3.872;2023-05-13T01:18:06;12.80;99.90
62424;DHT22;48463;43.604;3.872;2023-05-13T01:20:33;12.80;99.90
62424;DHT22;48463;43.604;3.872;2023-05-13T01:22:59;12.70;99.90
62424;DHT22;48463;43.604;3.872;2023-05-13T01:25:25;12.80;99.90
62424;DHT22;48463;43.604;3.872;2023-05-13T01:27:51;12.80;99.90
62424;DHT22;48463;43.604;3.872;2023-05-13T01:30:18;12.80;99.90
62424;DHT22;48463;43.604;3.872;2023-05-13T01:32:44;12.80;99.90
62424;DHT22;48463;43.604;3.872;2023-05-13T01:35:11;12.80;99.90
62424;DHT22;48463;43.604;3.872;2023-05-13T01:37:37;12.80;99.90
62424;DHT22;48463;43.604;3.872;2023-05-13T01:40:07;12.70;99.90
62424;DHT22;48463;43.604;3.872;2023-05-13T01:42:33;12.70;99.90
62424;DHT22;48463;43.604;3.872;2023-05-13T01:44:59;12.80;99.90
62424;DHT22;48463;43.604;3.872;2023-05-13T01:47:25;12.80;99.90
62424;DHT22;48463;43.604;3.872;2023-05-13T01:49:51;12.70;99.90
62424;DHT22;48463;43.604;3.872;2023-05-13T01:52:17;12.80;99.90
62424;DHT22;48463;43.604;3.872;2023-05-13T01:54:42;12.80;99.90
62424;DHT22;48463;43.604;3.872;2023-05-13T01:57:08;12.80;99.90
62424;DHT22;48463;43.604;3.872;2023-05-13T01:59:33;12.90;99.90
62424;DHT22;48463;43.604;3.872;2023-05-13T02:01:59;12.90;99.90
62424;DHT22;48463;43.604;3.872;2023-05-13T02:04:25;12.90;99.90
62424;DHT22;48463;43.604;3.872;2023-05-13T02:06:51;12.90;99.90
62424;DHT22;48463;43.604;3.872;2023-05-13T02:09:17;12.90;99.90
62424;DHT22;48463;43.604;3.872;2023-05-13T02:11:44;12.90;99.90
62424;DHT22;48463;43.604;3.872;2023-05-13T02:14:10;12.90;99.90
62424;DHT22;48463;43.604;3.872;2023-05-13T02:16:36;12.90;99.90
62424;DHT22;48463;43.604;3.872;2023-05-13T02:19:01;12.90;99.90
62424;DHT22;48463;43.604;3.872;2023-05-13T02:21:27;12.90;99.90
62424;DHT22;48463;43.604;3.872;2023-05-13T02:23:53;12.80;99.90
62424;DHT22;48463;43.604;3.872;2023-05-13T02:26:18;12.80;99.90
62424;DHT22;48463;43.604;3.872;2023-05-13T02:28:44;12.80;99.90
62424;DHT22;48463;43.604;3.872;2023-05-13T02:31:09;12.90;99.90
62424;DHT22;48463;43.604;3.872;2023-05-13T02:33:35;12.90;99.90
62424;DHT22;48463;43.604;3.872;2023-05-13T02:36:01;13.00;99.90
62424;DHT22;48463;43.604;3.872;2023-05-13T02:38:26;12.80;99.90
62424;DHT22;48463;43.604;3.872;2023-05-13T02:40:52;12.80;99.90
62424;DHT22;48463;43.604;3.872;2023-05-13T02:43:18;12.80;99.90
62424;DHT22;48463;43.604;3.872;2023-05-13T02:45:44;12.80;99.90
62424;DHT22;48463;43.604;3.872;2023-05-13T02:48:10;12.90;99.90
62424;DHT22;48463;43.604;3.872;2023-05-13T02:50:36;12.90;99.90
62424;DHT22;48463;43.604;3.872;2023-05-13T02:53:01;13.00;99.90
62424;DHT22;48463;43.604;3.872;2023-05-13T02:55:27;13.20;99.90
62424;DHT22;48463;43.604;3.872;2023-05-13T02:57:53;13.30;99.90
62424;DHT22;48463;43.604;3.872;2023-05-13T03:00:21;13.40;99.90
62424;DHT22;48463;43.604;3.872;2023-05-13T03:02:46;13.40;99.90
62424;DHT22;48463;43.604;3.872;2023-05-13T03:05:12;13.40;99.90
62424;DHT22;48463;43.604;3.872;2023-05-13T03:07:38;13.50;99.90
62424;DHT22;48463;43.604;3.872;2023-05-13T03:10:04;13.50;99.90
62424;DHT22;48463;43.604;3.872;2023-05-13T03:12:30;13.50;99.90
62424;DHT22;48463;43.604;3.872;2023-05-13T03:14:56;13.50;99.90
62424;DHT22;48463;43.604;3.872;2023-05-13T03:17:21;13.30;99.90
62424;DHT22;48463;43.604;3.872;2023-05-13T03:19:47;13.20;99.90
62424;DHT22;48463;43.604;3.872;2023-05-13T03:22:12;13.00;99.90
62424;DHT22;48463;43.604;3.872;2023-05-13T03:24:38;13.00;99.90
62424;DHT22;48463;43.604;3.872;2023-05-13T03:27:04;13.10;99.90
62424;DHT22;48463;43.604;3.872;2023-05-13T03:29:29;13.10;99.90
62424;DHT22;48463;43.604;3.872;2023-05-13T03:31:55;13.00;99.90
62424;DHT22;48463;43.604;3.872;2023-05-13T03:34:21;13.10;99.90
62424;DHT22;48463;43.604;3.872;2023-05-13T03:36:46;13.10;99.90
62424;DHT22;48463;43.604;3.872;2023-05-13T03:39:12;13.00;99.90
62424;DHT22;48463;43.604;3.872;2023-05-13T03:41:38;13.00;99.90
62424;DHT22;48463;43.604;3.872;2023-05-13T03:44:03;13.00;99.90
62424;DHT22;48463;43.604;3.872;2023-05-13T03:46:29;13.00;99.90
62424;DHT22;48463;43.604;3.872;2023-05-13T03:48:56;12.90;99.90
62424;DHT22;48463;43.604;3.872;2023-05-13T03:51:21;12.90;99.90
62424;DHT22;48463;43.604;3.872;2023-05-13T03:53:47;13.00;99.90
62424;DHT22;48463;43.604;3.872;2023-05-13T03:56:13;12.90;99.90
62424;DHT22;48463;43.604;3.872;2023-05-13T03:58:39;13.00;99.90
62424;DHT22;48463;43.604;3.872;2023-05-13T04:01:08;12.90;99.90
62424;DHT22;48463;43.604;3.872;2023-05-13T04:03:34;12.90;99.90
62424;DHT22;48463;43.604;3.872;2023-05-13T04:06:00;12.90;99.90
62424;DHT22;48463;43.604;3.872;2023-05-13T04:08:26;12.90;99.90
62424;DHT22;48463;43.604;3.872;2023-05-13T04:10:51;12.90;99.90
62424;DHT22;48463;43.604;3.872;2023-05-13T04:13:17;12.90;99.90
62424;DHT22;48463;43.604;3.872;2023-05-13T04:15:43;12.90;99.90
62424;DHT22;48463;43.604;3.872;2023-05-13T04:18:09;12.90;99.90
62424;DHT22;48463;43.604;3.872;2023-05-13T04:20:38;12.90;99.90
62424;DHT22;48463;43.604;3.872;2023-05-13T04:23:06;12.90;99.90
62424;DHT22;48463;43.604;3.872;2023-05-13T04:25:33;12.80;99.90
62424;DHT22;48463;43.604;3.872;2023-05-13T04:27:59;12.80;99.90
62424;DHT22;48463;43.604;3.872;2023-05-13T04:30:25;12.80;99.90
62424;DHT22;48463;43.604;3.872;2023-05-13T04:32:50;12.70;99.90
62424;DHT22;48463;43.604;3.872;2023-05-13T04:35:16;12.70;99.90
62424;DHT22;48463;43.604;3.872;2023-05-13T04:37:42;12.80;99.90
62424;DHT22;48463;43.604;3.872;2023-05-13T04:40:09;12.70;99.90
62424;DHT22;48463;43.604;3.872;2023-05-13T04:42:35;12.70;99.90
62424;DHT22;48463;43.604;3.872;2023-05-13T04:45:01;12.80;99.90
62424;DHT22;48463;43.604;3.872;2023-05-13T04:47:26;12.80;99.90
62424;DHT22;48463;43.604;3.872;2023-05-13T04:49:52;12.80;99.90
62424;DHT22;48463;43.604;3.872;2023-05-13T04:52:18;12.80;99.90
62424;DHT22;48463;43.604;3.872;2023-05-13T04:54:44;12.80;99.90
62424;DHT22;48463;43.604;3.872;2023-05-13T04:57:09;12.80;99.90
62424;DHT22;48463;43.604;3.872;2023-05-13T04:59:35;12.90;99.90
62424;DHT22;48463;43.604;3.872;2023-05-13T05:02:01;13.00;99.90
62424;DHT22;48463;43.604;3.872;2023-05-13T05:04:27;13.10;99.90
62424;DHT22;48463;43.604;3.872;2023-05-13T05:06:53;13.10;99.90
62424;DHT22;48463;43.604;3.872;2023-05-13T05:09:18;13.20;99.90
62424;DHT22;48463;43.604;3.872;2023-05-13T05:11:44;13.20;99.90
62424;DHT22;48463;43.604;3.872;2023-05-13T05:14:10;13.40;99.90
62424;DHT22;48463;43.604;3.872;2023-05-13T05:16:35;13.50;99.90
62424;DHT22;48463;43.604;3.872;2023-05-13T05:19:01;13.60;99.90
62424;DHT22;48463;43.604;3.872;2023-05-13T05:21:27;13.70;99.90
62424;DHT22;48463;43.604;3.872;2023-05-13T05:23:52;13.90;99.90
62424;DHT22;48463;43.604;3.872;2023-05-13T05:26:18;13.90;99.90
62424;DHT22;48463;43.604;3.872;2023-05-13T05:28:44;14.00;99.90
62424;DHT22;48463;43.604;3.872;2023-05-13T05:31:10;14.10;99.90
62424;DHT22;48463;43.604;3.872;2023-05-13T05:33:36;13.90;99.90
62424;DHT22;48463;43.604;3.872;2023-05-13T05:36:02;13.60;99.90
62424;DHT22;48463;43.604;3.872;2023-05-13T05:38:28;13.60;99.90
62424;DHT22;48463;43.604;3.872;2023-05-13T05:40:54;13.70;99.90
62424;DHT22;48463;43.604;3.872;2023-05-13T05:43:20;13.60;99.90
62424;DHT22;48463;43.604;3.872;2023-05-13T05:45:45;13.60;99.90
62424;DHT22;48463;43.604;3.872;2023-05-13T05:48:11;13.70;99.90
62424;DHT22;48463;43.604;3.872;2023-05-13T05:50:37;13.70;99.90
62424;DHT22;48463;43.604;3.872;2023-05-13T05:53:03;13.70;99.90
62424;DHT22;48463;43.604;3.872;2023-05-13T05:55:29;13.60;99.90
62424;DHT22;48463;43.604;3.872;2023-05-13T05:57:56;13.60;99.90
62424;DHT22;48463;43.604;3.872;2023-05-13T06:00:23;13.60;99.90
62424;DHT22;48463;43.604;3.872;2023-05-13T06:02:49;13.80;99.90
62424;DHT22;48463;43.604;3.872;2023-05-13T06:05:15;14.10;99.90
62424;DHT22;48463;43.604;3.872;2023-05-13T06:07:41;14.30;99.90
62424;DHT22;48463;43.604;3.872;2023-05-13T06:10:07;14.40;99.90
62424;DHT22;48463;43.604;3.872;2023-05-13T06:12:33;14.40;99.90
62424;DHT22;48463;43.604;3.872;2023-05-13T06:15:00;14.50;99.90
62424;DHT22;48463;43.604;3.872;2023-05-13T06:17:25;14.40;99.90
62424;DHT22;48463;43.604;3.872;2023-05-13T06:19:51;14.50;99.90
62424;DHT22;48463;43.604;3.872;2023-05-13T06:22:17;14.60;99.90
62424;DHT22;48463;43.604;3.872;2023-05-13T06:24:42;14.40;99.90
62424;DHT22;48463;43.604;3.872;2023-05-13T06:27:12;14.50;99.90
62424;DHT22;48463;43.604;3.872;2023-05-13T06:29:38;14.60;99.90
62424;DHT22;48463;43.604;3.872;2023-05-13T06:32:04;14.80;99.90
62424;DHT22;48463;43.604;3.872;2023-05-13T06:34:30;14.80;99.90
62424;DHT22;48463;43.604;3.872;2023-05-13T06:36:56;14.80;99.90
62424;DHT22;48463;43.604;3.872;2023-05-13T06:39:22;15.00;99.90
62424;DHT22;48463;43.604;3.872;2023-05-13T06:41:47;15.00;99.90
62424;DHT22;48463;43.604;3.872;2023-05-13T06:44:13;15.00;99.90
62424;DHT22;48463;43.604;3.872;2023-05-13T06:46:39;15.20;99.90
62424;DHT22;48463;43.604;3.872;2023-05-13T06:49:04;15.10;99.90
62424;DHT22;48463;43.604;3.872;2023-05-13T06:51:31;15.10;99.90
62424;DHT22;48463;43.604;3.872;2023-05-13T06:53:58;15.20;99.90
62424;DHT22;48463;43.604;3.872;2023-05-13T06:56:24;15.30;99.90
62424;DHT22;48463;43.604;3.872;2023-05-13T06:58:53;15.60;99.90
62424;DHT22;48463;43.604;3.872;2023-05-13T07:01:18;15.70;99.90
62424;DHT22;48463;43.604;3.872;2023-05-13T07:03:44;15.80;99.90
62424;DHT22;48463;43.604;3.872;2023-05-13T07:06:10;15.90;99.90
62424;DHT22;48463;43.604;3.872;2023-05-13T07:08:36;16.00;99.90
62424;DHT22;48463;43.604;3.872;2023-05-13T07:11:02;16.00;99.90
62424;DHT22;48463;43.604;3.872;2023-05-13T07:13:28;16.00;99.90
62424;DHT22;48463;43.604;3.872;2023-05-13T07:15:54;16.00;99.90
62424;DHT22;48463;43.604;3.872;2023-05-13T07:18:20;16.10;99.90
62424;DHT22;48463;43.604;3.872;2023-05-13T07:20:45;16.40;99.90
62424;DHT22;48463;43.604;3.872;2023-05-13T07:23:11;16.50;99.90
62424;DHT22;48463;43.604;3.872;2023-05-13T07:25:37;16.50;99.90
62424;DHT22;48463;43.604;3.872;2023-05-13T07:28:03;16.70;99.90
62424;DHT22;48463;43.604;3.872;2023-05-13T07:30:29;16.80;99.90
62424;DHT22;48463;43.604;3.872;2023-05-13T07:32:56;16.70;99.90
62424;DHT22;48463;43.604;3.872;2023-05-13T07:35:23;16.40;99.90
62424;DHT22;48463;43.604;3.872;2023-05-13T07:37:49;16.40;99.90
62424;DHT22;48463;43.604;3.872;2023-05-13T07:40:15;16.70;99.90
62424;DHT22;48463;43.604;3.872;2023-05-13T07:42:42;17.00;99.90
62424;DHT22;48463;43.604;3.872;2023-05-13T07:45:08;17.20;99.90
62424;DHT22;48463;43.604;3.872;2023-05-13T07:47:33;17.40;99.90
62424;DHT22;48463;43.604;3.872;2023-05-13T07:49:59;17.30;99.90
62424;DHT22;48463;43.604;3.872;2023-05-13T07:52:25;17.50;99.90
62424;DHT22;48463;43.604;3.872;2023-05-13T07:54:51;17.60;99.90
62424;DHT22;48463;43.604;3.872;2023-05-13T07:57:17;17.40;99.90
62424;DHT22;48463;43.604;3.872;2023-05-13T07:59:44;17.40;99.90
62424;DHT22;48463;43.604;3.872;2023-05-13T08:02:10;17.50;99.90
62424;DHT22;48463;43.604;3.872;2023-05-13T08:04:36;17.60;99.90
62424;DHT22;48463;43.604;3.872;2023-05-13T08:07:02;17.60;99.90
62424;DHT22;48463;43.604;3.872;2023-05-13T08:09:27;17.50;99.90
62424;DHT22;48463;43.604;3.872;2023-05-13T08:11:53;17.50;99.90
62424;DHT22;48463;43.604;3.872;2023-05-13T08:14:19;17.80;99.90
62424;DHT22;48463;43.604;3.872;2023-05-13T08:16:45;17.90;99.90
62424;DHT22;48463;43.604;3.872;2023-05-13T08:19:13;17.70;99.90
62424;DHT22;48463;43.604;3.872;2023-05-13T08:21:39;18.00;99.90
62424;DHT22;48463;43.604;3.872;2023-05-13T08:24:05;17.90;99.90
62424;DHT22;48463;43.604;3.872;2023-05-13T08:26:31;18.00;99.90
62424;DHT22;48463;43.604;3.872;2023-05-13T08:28:57;18.30;99.90
62424;DHT22;48463;43.604;3.872;2023-05-13T08:31:23;18.00;99.90
62424;DHT22;48463;43.604;3.872;2023-05-13T08:33:52;18.10;99.90
62424;DHT22;48463;43.604;3.872;2023-05-13T08:36:19;18.30;99.90
62424;DHT22;48463;43.604;3.872;2023-05-13T08:38:46;18.50;99.90
62424;DHT22;48463;43.604;3.872;2023-05-13T08:41:12;18.70;99.90
62424;DHT22;48463;43.604;3.872;2023-05-13T08:43:46;18.60;99.90
62424;DHT22;48463;43.604;3.872;2023-05-13T08:46:11;18.70;99.90
62424;DHT22;48463;43.604;3.872;2023-05-13T08:48:40;18.60;99.90
62424;DHT22;48463;43.604;3.872;2023-05-13T08:51:07;18.20;99.90
62424;DHT22;48463;43.604;3.872;2023-05-13T08:53:34;18.40;99.90
62424;DHT22;48463;43.604;3.872;2023-05-13T08:56:00;18.70;99.90
62424;DHT22;48463;43.604;3.872;2023-05-13T08:58:26;18.40;99.90
62424;DHT22;48463;43.604;3.872;2023-05-13T09:00:53;18.40;99.90
62424;DHT22;48463;43.604;3.872;2023-05-13T09:03:19;18.50;99.90
62424;DHT22;48463;43.604;3.872;2023-05-13T09:05:46;18.70;99.90
62424;DHT22;48463;43.604;3.872;2023-05-13T09:08:12;18.40;99.90
62424;DHT22;48463;43.604;3.872;2023-05-13T09:10:38;18.20;99.90
62424;DHT22;48463;43.604;3.872;2023-05-13T09:13:04;18.30;99.90
62424;DHT22;48463;43.604;3.872;2023-05-13T09:15:30;18.40;99.90
62424;DHT22;48463;43.604;3.872;2023-05-13T09:18:06;18.40;99.90
62424;DHT22;48463;43.604;3.872;2023-05-13T09:20:32;18.20;99.90
62424;DHT22;48463;43.604;3.872;2023-05-13T09:23:05;18.40;99.90
62424;DHT22;48463;43.604;3.872;2023-05-13T09:25:31;18.70;99.90
62424;DHT22;48463;43.604;3.872;2023-05-13T09:28:00;18.80;99.90
62424;DHT22;48463;43.604;3.872;2023-05-13T09:30:33;19.20;99.90
62424;DHT22;48463;43.604;3.872;2023-05-13T09:33:09;19.10;99.90
62424;DHT22;48463;43.604;3.872;2023-05-13T09:35:43;18.90;99.90
62424;DHT22;48463;43.604;3.872;2023-05-13T09:38:17;19.10;99.90
62424;DHT22;48463;43.604;3.872;2023-05-13T09:40:54;19.20;99.90
62424;DHT22;48463;43.604;3.872;2023-05-13T09:43:22;19.00;99.90
62424;DHT22;48463;43.604;3.872;2023-05-13T09:45:55;19.30;99.90
62424;DHT22;48463;43.604;3.872;2023-05-13T09:48:26;19.10;99.90
62424;DHT22;48463;43.604;3.872;2023-05-13T09:50:51;18.90;99.90
62424;DHT22;48463;43.604;3.872;2023-05-13T09:53:18;18.80;99.90
62424;DHT22;48463;43.604;3.872;2023-05-13T09:55:48;18.60;99.90
62424;DHT22;48463;43.604;3.872;2023-05-13T09:58:14;18.80;99.90
62424;DHT22;48463;43.604;3.872;2023-05-13T10:00:41;18.90;99.90
62424;DHT22;48463;43.604;3.872;2023-05-13T10:03:08;18.80;99.90
62424;DHT22;48463;43.604;3.872;2023-05-13T10:05:34;19.30;99.90
62424;DHT22;48463;43.604;3.872;2023-05-13T10:08:00;19.60;99.90
62424;DHT22;48463;43.604;3.872;2023-05-13T10:10:31;19.70;99.90
62424;DHT22;48463;43.604;3.872;2023-05-13T10:13:12;19.50;99.90
62424;DHT22;48463;43.604;3.872;2023-05-13T10:15:49;19.70;99.90
62424;DHT22;48463;43.604;3.872;2023-05-13T10:18:16;19.50;99.90
62424;DHT22;48463;43.604;3.872;2023-05-13T10:20:42;19.90;99.90
62424;DHT22;48463;43.604;3.872;2023-05-13T10:23:09;19.80;99.90
62424;DHT22;48463;43.604;3.872;2023-05-13T10:25:36;20.00;99.90
62424;DHT22;48463;43.604;3.872;2023-05-13T10:28:02;20.00;99.90
62424;DHT22;48463;43.604;3.872;2023-05-13T10:30:29;19.60;99.90
62424;DHT22;48463;43.604;3.872;2023-05-13T10:32:57;19.80;99.90
62424;DHT22;48463;43.604;3.872;2023-05-13T10:35:28;19.70;99.90
62424;DHT22;48463;43.604;3.872;2023-05-13T10:38:06;19.90;99.90
62424;DHT22;48463;43.604;3.872;2023-05-13T10:41:13;20.10;99.90
62424;DHT22;48463;43.604;3.872;2023-05-13T10:43:57;20.00;99.90
62424;DHT22;48463;43.604;3.872;2023-05-13T10:46:23;19.60;99.90
62424;DHT22;48463;43.604;3.872;2023-05-13T10:48:55;19.40;99.90
62424;DHT22;48463;43.604;3.872;2023-05-13T10:51:23;19.50;99.90
62424;DHT22;48463;43.604;3.872;2023-05-13T10:53:54;19.40;99.90
62424;DHT22;48463;43.604;3.872;2023-05-13T10:56:22;19.50;99.90
62424;DHT22;48463;43.604;3.872;2023-05-13T10:59:02;19.50;99.90
62424;DHT22;48463;43.604;3.872;2023-05-13T11:01:35;20.20;99.90
62424;DHT22;48463;43.604;3.872;2023-05-13T11:04:12;20.10;99.80
62424;DHT22;48463;43.604;3.872;2023-05-13T11:06:40;20.40;99.90
62424;DHT22;48463;43.604;3.872;2023-05-13T11:09:07;20.30;99.40
62424;DHT22;48463;43.604;3.872;2023-05-13T11:11:36;20.50;98.90
62424;DHT22;48463;43.604;3.872;2023-05-13T11:14:35;20.80;99.40
62424;DHT22;48463;43.604;3.872;2023-05-13T11:19:30;19.90;99.10
62424;DHT22;48463;43.604;3.872;2023-05-13T11:22:13;20.20;99.90
62424;DHT22;48463;43.604;3.872;2023-05-13T11:24:43;21.30;99.90
62424;DHT22;48463;43.604;3.872;2023-05-13T11:27:14;21.40;98.80
62424;DHT22;48463;43.604;3.872;2023-05-13T11:29:55;20.90;98.70
62424;DHT22;48463;43.604;3.872;2023-05-13T11:35:22;20.40;99.90
62424;DHT22;48463;43.604;3.872;2023-05-13T11:37:48;20.00;99.90
62424;DHT22;48463;43.604;3.872;2023-05-13T11:40:24;19.80;99.90
62424;DHT22;48463;43.604;3.872;2023-05-13T11:42:51;20.10;99.90
62424;DHT22;48463;43.604;3.872;2023-05-13T11:45:18;20.30;99.90
62424;DHT22;48463;43.604;3.872;2023-05-13T11:47:46;20.40;99.90
62424;DHT22;48463;43.604;3.872;2023-05-13T11:50:18;20.60;99.90
62424;DHT22;48463;43.604;3.872;2023-05-13T11:52:45;21.30;99.90
62424;DHT22;48463;43.604;3.872;2023-05-13T11:55:10;21.40;98.80
62424;DHT22;48463;43.604;3.872;2023-05-13T11:57:36;21.70;99.20
62424;DHT22;48463;43.604;3.872;2023-05-13T12:00:05;21.80;99.40
62424;DHT22;48463;43.604;3.872;2023-05-13T12:02:33;21.70;99.20
62424;DHT22;48463;43.604;3.872;2023-05-13T12:05:01;21.90;98.90
62424;DHT22;48463;43.604;3.872;2023-05-13T12:07:28;21.50;99.00
62424;DHT22;48463;43.604;3.872;2023-05-13T12:09:56;20.20;99.20
62424;DHT22;48463;43.604;3.872;2023-05-13T12:12:23;20.20;99.60
62424;DHT22;48463;43.604;3.872;2023-05-13T12:14:51;20.30;99.60
62424;DHT22;48463;43.604;3.872;2023-05-13T12:17:19;21.00;99.40
62424;DHT22;48463;43.604;3.872;2023-05-13T12:20:04;21.80;99.20
62424;DHT22;48463;43.604;3.872;2023-05-13T12:22:30;21.90;97.60
62424;DHT22;48463;43.604;3.872;2023-05-13T12:24:56;21.60;98.20
62424;DHT22;48463;43.604;3.872;2023-05-13T12:27:25;21.10;98.40
62424;DHT22;48463;43.604;3.872;2023-05-13T12:29:54;22.20;98.50
62424;DHT22;48463;43.604;3.872;2023-05-13T12:32:20;22.00;97.40
62424;DHT22;48463;43.604;3.872;2023-05-13T12:34:49;21.40;97.40
62424;DHT22;48463;43.604;3.872;2023-05-13T12:37:15;21.30;98.10
62424;DHT22;48463;43.604;3.872;2023-05-13T12:39:42;20.90;98.40
62424;DHT22;48463;43.604;3.872;2023-05-13T12:42:16;20.70;99.40
62424;DHT22;48463;43.604;3.872;2023-05-13T12:44:43;20.90;99.40
62424;DHT22;48463;43.604;3.872;2023-05-13T12:47:10;20.90;98.60
62424;DHT22;48463;43.604;3.872;2023-05-13T12:49:54;20.80;98.70
62424;DHT22;48463;43.604;3.872;2023-05-13T12:52:21;20.90;99.00
62424;DHT22;48463;43.604;3.872;2023-05-13T12:54:47;20.80;98.00
62424;DHT22;48463;43.604;3.872;2023-05-13T12:57:17;20.60;98.60
62424;DHT22;48463;43.604;3.872;2023-05-13T12:59:45;20.30;98.40
62424;DHT22;48463;43.604;3.872;2023-05-13T13:02:12;20.10;99.10
62424;DHT22;48463;43.604;3.872;2023-05-13T13:04:37;20.00;99.90
62424;DHT22;48463;43.604;3.872;2023-05-13T13:07:03;19.10;99.40
62424;DHT22;48463;43.604;3.872;2023-05-13T13:09:34;19.00;99.90
62424;DHT22;48463;43.604;3.872;2023-05-13T13:12:00;18.60;99.90
62424;DHT22;48463;43.604;3.872;2023-05-13T13:14:25;18.90;99.90
62424;DHT22;48463;43.604;3.872;2023-05-13T13:16:51;18.90;99.90
62424;DHT22;48463;43.604;3.872;2023-05-13T13:19:17;17.40;99.90
62424;DHT22;48463;43.604;3.872;2023-05-13T13:21:42;17.00;99.90
62424;DHT22;48463;43.604;3.872;2023-05-13T13:24:08;16.80;99.90
62424;DHT22;48463;43.604;3.872;2023-05-13T13:26:34;16.90;99.90
62424;DHT22;48463;43.604;3.872;2023-05-13T13:28:59;16.90;99.90
62424;DHT22;48463;43.604;3.872;2023-05-13T13:31:25;16.70;99.90
62424;DHT22;48463;43.604;3.872;2023-05-13T13:33:51;16.50;99.90
62424;DHT22;48463;43.604;3.872;2023-05-13T13:36:18;16.40;99.90
62424;DHT22;48463;43.604;3.872;2023-05-13T13:38:44;16.30;99.90
62424;DHT22;48463;43.604;3.872;2023-05-13T13:41:09;16.50;99.90
62424;DHT22;48463;43.604;3.872;2023-05-13T13:43:35;16.60;99.90
62424;DHT22;48463;43.604;3.872;2023-05-13T13:46:01;16.50;99.90
62424;DHT22;48463;43.604;3.872;2023-05-13T13:48:27;16.50;99.90
62424;DHT22;48463;43.604;3.872;2023-05-13T13:50:52;16.60;99.90
62424;DHT22;48463;43.604;3.872;2023-05-13T13:53:19;16.60;99.90
62424;DHT22;48463;43.604;3.872;2023-05-13T13:55:45;16.70;99.90
62424;DHT22;48463;43.604;3.872;2023-05-13T13:58:10;16.80;99.90
62424;DHT22;48463;43.604;3.872;2023-05-13T14:00:36;17.00;99.90
62424;DHT22;48463;43.604;3.872;2023-05-13T14:03:02;17.00;99.90
62424;DHT22;48463;43.604;3.872;2023-05-13T14:05:28;17.10;99.90
62424;DHT22;48463;43.604;3.872;2023-05-13T14:07:54;17.20;99.90
62424;DHT22;48463;43.604;3.872;2023-05-13T14:10:20;17.20;99.90
62424;DHT22;48463;43.604;3.872;2023-05-13T14:12:46;17.40;99.90
62424;DHT22;48463;43.604;3.872;2023-05-13T14:15:12;17.30;99.90
62424;DHT22;48463;43.604;3.872;2023-05-13T14:17:38;17.50;99.90
62424;DHT22;48463;43.604;3.872;2023-05-13T14:20:04;17.50;99.90
62424;DHT22;48463;43.604;3.872;2023-05-13T14:22:30;17.60;99.90
62424;DHT22;48463;43.604;3.872;2023-05-13T14:24:57;17.70;99.90
62424;DHT22;48463;43.604;3.872;2023-05-13T14:27:23;17.70;99.90
62424;DHT22;48463;43.604;3.872;2023-05-13T14:29:49;18.00;99.90
62424;DHT22;48463;43.604;3.872;2023-05-13T14:32:15;18.10;99.90
62424;DHT22;48463;43.604;3.872;2023-05-13T14:34:41;18.20;99.90
62424;DHT22;48463;43.604;3.872;2023-05-13T14:37:07;18.80;99.90
62424;DHT22;48463;43.604;3.872;2023-05-13T14:39:33;19.30;99.90
62424;DHT22;48463;43.604;3.872;2023-05-13T14:41:59;19.50;99.90
62424;DHT22;48463;43.604;3.872;2023-05-13T14:44:25;19.70;99.90
62424;DHT22;48463;43.604;3.872;2023-05-13T14:46:50;19.70;99.90
62424;DHT22;48463;43.604;3.872;2023-05-13T14:49:16;20.10;99.90
62424;DHT22;48463;43.604;3.872;2023-05-13T14:51:42;21.40;99.90
62424;DHT22;48463;43.604;3.872;2023-05-13T14:54:08;23.50;99.90
62424;DHT22;48463;43.604;3.872;2023-05-13T14:56:34;24.30;97.30
62424;DHT22;48463;43.604;3.872;2023-05-13T14:59:00;24.30;95.60
62424;DHT22;48463;43.604;3.872;2023-05-13T15:01:26;24.90;94.90
62424;DHT22;48463;43.604;3.872;2023-05-13T15:03:52;26.00;94.00
62424;DHT22;48463;43.604;3.872;2023-05-13T15:06:18;25.70;91.90
62424;DHT22;48463;43.604;3.872;2023-05-13T15:08:43;24.70;91.60
62424;DHT22;48463;43.604;3.872;2023-05-13T15:11:09;25.90;91.40
62424;DHT22;48463;43.604;3.872;2023-05-13T15:13:35;23.80;91.10
62424;DHT22;48463;43.604;3.872;2023-05-13T15:16:02;22.40;93.00
62424;DHT22;48463;43.604;3.872;2023-05-13T15:18:28;21.80;95.20
62424;DHT22;48463;43.604;3.872;2023-05-13T15:20:54;22.10;95.90
62424;DHT22;48463;43.604;3.872;2023-05-13T15:23:20;21.80;93.80
62424;DHT22;48463;43.604;3.872;2023-05-13T15:25:46;21.30;94.00
62424;DHT22;48463;43.604;3.872;2023-05-13T15:28:13;20.90;94.20
62424;DHT22;48463;43.604;3.872;2023-05-13T15:30:39;20.80;94.30
62424;DHT22;48463;43.604;3.872;2023-05-13T15:33:04;21.20;94.70
62424;DHT22;48463;43.604;3.872;2023-05-13T15:35:30;20.90;94.50
62424;DHT22;48463;43.604;3.872;2023-05-13T15:37:56;21.00;94.20
62424;DHT22;48463;43.604;3.872;2023-05-13T15:40:22;21.40;93.70
62424;DHT22;48463;43.604;3.872;2023-05-13T15:42:48;21.80;93.70